createdAt,value
2018-09-09T00:01:41.200Z,11.80
2018-09-09T00:04:09.623Z,12.70
2018-09-09T00:06:38.235Z,12.50
2018-09-09T00:09:06.819Z,12.40
2018-09-09T00:11:35.299Z,12.70
2018-09-09T00:14:03.687Z,12.60
2018-09-09T00:16:32.169Z,12.40
2018-09-09T00:19:00.558Z,12.20
2018-09-09T00:21:29.039Z,12.50
2018-09-09T00:23:57.547Z,12.50
2018-09-09T00:26:25.939Z,12.90
2018-09-09T00:28:54.234Z,13.20
2018-09-09T00:31:22.633Z,13.40
2018-09-09T00:33:51.115Z,12.80
2018-09-09T00:36:19.575Z,13.20
2018-09-09T00:38:47.914Z,13.40
2018-09-09T00:41:16.279Z,13.40
2018-09-09T00:43:44.834Z,13.20
2018-09-09T00:46:13.279Z,13.20
2018-09-09T00:48:41.726Z,13.20
2018-09-09T00:51:15.411Z,13.00
2018-09-09T00:53:46.695Z,12.60
2018-09-09T00:56:15.514Z,12.10
2018-09-09T00:58:44.062Z,11.70
2018-09-09T01:01:15.325Z,11.80
2018-09-09T01:03:44.206Z,12.30
2018-09-09T01:06:12.706Z,11.70
2018-09-09T01:08:41.110Z,11.40
2018-09-09T01:11:10.271Z,11.50
2018-09-09T01:13:38.618Z,11.60
2018-09-09T01:16:07.471Z,11.90
2018-09-09T01:18:35.945Z,12.40
2018-09-09T01:21:04.338Z,12.10
2018-09-09T01:23:32.771Z,11.90
2018-09-09T01:26:01.254Z,11.50
2018-09-09T01:28:29.712Z,10.80
2018-09-09T01:30:58.207Z,10.50
2018-09-09T01:33:26.699Z,10.50
2018-09-09T01:35:55.123Z,10.30
2018-09-09T01:38:23.665Z,10.30
2018-09-09T01:40:52.097Z,10.30
2018-09-09T01:43:20.516Z,10.40
2018-09-09T01:45:48.992Z,10.30
2018-09-09T01:48:17.432Z,10.20
2018-09-09T01:50:45.868Z,10.00
2018-09-09T01:53:14.214Z,10.00
2018-09-09T01:55:42.739Z,10.70
2018-09-09T01:58:17.519Z,10.90
2018-09-09T02:00:46.050Z,11.10
2018-09-09T02:03:14.522Z,11.70
2018-09-09T02:05:43.020Z,10.90
2018-09-09T02:08:11.516Z,10.80
2018-09-09T02:10:39.915Z,11.00
2018-09-09T02:13:08.327Z,10.90
2018-09-09T02:15:36.794Z,11.50
2018-09-09T02:18:05.180Z,11.70
2018-09-09T02:20:33.526Z,11.80
2018-09-09T02:23:01.887Z,11.40
2018-09-09T02:25:30.278Z,11.90
2018-09-09T02:27:58.739Z,11.90
2018-09-09T02:30:27.153Z,11.90
2018-09-09T02:32:55.650Z,11.30
2018-09-09T02:35:24.150Z,11.50
2018-09-09T02:37:52.622Z,12.10
2018-09-09T02:40:21.103Z,12.10
2018-09-09T02:42:49.692Z,12.10
2018-09-09T02:45:18.115Z,12.20
2018-09-09T02:47:46.604Z,12.00
2018-09-09T02:50:15.078Z,11.20
2018-09-09T02:52:43.548Z,10.80
2018-09-09T02:55:11.908Z,10.70
2018-09-09T02:57:40.352Z,11.40
2018-09-09T03:00:08.712Z,11.70
2018-09-09T03:02:37.206Z,11.70
2018-09-09T03:05:05.761Z,10.80
2018-09-09T03:07:34.244Z,10.80
2018-09-09T03:10:02.650Z,10.70
2018-09-09T03:12:31.162Z,11.00
2018-09-09T03:14:59.640Z,10.40
2018-09-09T03:17:28.171Z,10.10
2018-09-09T03:19:56.570Z,9.60
2018-09-09T03:22:24.952Z,9.60
2018-09-09T03:24:53.348Z,10.20
2018-09-09T03:27:21.924Z,11.00
2018-09-09T03:29:50.365Z,11.00
2018-09-09T03:32:18.809Z,11.60
2018-09-09T03:34:47.255Z,11.90
2018-09-09T03:37:15.672Z,11.90
2018-09-09T03:39:44.191Z,11.70
2018-09-09T03:42:12.639Z,11.60
2018-09-09T03:44:41.141Z,11.10
2018-09-09T03:47:09.629Z,10.80
2018-09-09T03:49:38.125Z,10.40
2018-09-09T03:52:06.623Z,11.20
2018-09-09T03:54:35.144Z,11.20
2018-09-09T03:57:03.603Z,11.30
2018-09-09T03:59:32.030Z,11.50
2018-09-09T04:02:00.501Z,10.70
2018-09-09T04:04:28.906Z,10.40
2018-09-09T04:06:57.283Z,10.20
2018-09-09T04:09:25.739Z,10.00
2018-09-09T04:11:54.152Z,9.40
2018-09-09T04:14:22.696Z,9.30
2018-09-09T04:16:51.107Z,10.10
2018-09-09T04:19:19.474Z,10.60
2018-09-09T04:21:50.554Z,10.80
2018-09-09T04:24:19.742Z,11.30
2018-09-09T04:26:48.431Z,11.50
2018-09-09T04:29:16.987Z,11.30
2018-09-09T04:31:45.403Z,11.20
2018-09-09T04:34:14.261Z,11.00
2018-09-09T04:36:43.152Z,11.10
2018-09-09T04:39:13.402Z,11.00
2018-09-09T04:41:42.134Z,10.80
2018-09-09T04:44:12.240Z,11.10
2018-09-09T04:46:40.656Z,11.40
2018-09-09T04:49:09.731Z,10.70
2018-09-09T04:51:38.286Z,10.60
2018-09-09T04:54:06.786Z,10.40
2018-09-09T04:56:35.375Z,10.50
2018-09-09T04:59:03.862Z,10.50
2018-09-09T05:01:32.312Z,10.60
2018-09-09T05:04:00.729Z,10.60
2018-09-09T05:06:29.099Z,10.80
2018-09-09T05:08:57.567Z,11.20
2018-09-09T05:11:26.098Z,11.40
2018-09-09T05:13:54.451Z,10.60
2018-09-09T05:16:22.877Z,10.20
2018-09-09T05:18:51.447Z,9.50
2018-09-09T05:21:19.855Z,9.30
2018-09-09T05:23:48.248Z,10.20
2018-09-09T05:26:16.700Z,11.00
2018-09-09T05:28:45.121Z,11.20
2018-09-09T05:31:13.495Z,11.30
2018-09-09T05:33:41.952Z,10.90
2018-09-09T05:36:10.407Z,11.00
2018-09-09T05:38:38.868Z,11.20
2018-09-09T05:41:07.291Z,11.00
2018-09-09T05:43:35.727Z,10.90
2018-09-09T05:46:04.173Z,11.00
2018-09-09T05:48:32.713Z,10.30
2018-09-09T05:51:01.190Z,10.10
2018-09-09T05:53:29.619Z,11.00
2018-09-09T05:55:58.150Z,11.90
2018-09-09T05:58:26.648Z,12.50
2018-09-09T06:00:55.007Z,13.50
2018-09-09T06:03:23.419Z,13.40
2018-09-09T06:05:51.837Z,13.50
2018-09-09T06:08:20.474Z,11.80
2018-09-09T06:10:53.091Z,11.30
2018-09-09T06:13:22.382Z,11.50
2018-09-09T06:15:50.861Z,11.30
2018-09-09T06:18:19.231Z,11.40
2018-09-09T06:20:47.792Z,11.60
2018-09-09T06:23:16.337Z,13.10
2018-09-09T06:25:45.177Z,13.40
2018-09-09T06:28:13.697Z,12.60
2018-09-09T06:30:42.190Z,13.20
2018-09-09T06:33:10.599Z,12.40
2018-09-09T06:35:38.952Z,12.10
2018-09-09T06:38:07.289Z,12.60
2018-09-09T06:40:35.695Z,13.10
2018-09-09T06:43:03.986Z,12.40
2018-09-09T06:45:32.295Z,12.50
2018-09-09T06:48:00.626Z,12.40
2018-09-09T06:50:28.978Z,13.50
2018-09-09T06:52:57.368Z,13.60
2018-09-09T06:55:25.847Z,14.50
2018-09-09T06:57:54.307Z,15.40
2018-09-09T07:00:22.754Z,16.50
2018-09-09T07:02:51.300Z,16.50
2018-09-09T07:05:19.708Z,15.10
2018-09-09T07:07:48.063Z,15.40
2018-09-09T07:10:16.499Z,16.20
2018-09-09T07:12:44.943Z,16.20
2018-09-09T07:15:13.375Z,15.30
2018-09-09T07:17:41.720Z,16.30
2018-09-09T07:20:10.174Z,16.00
2018-09-09T07:22:38.781Z,15.40
2018-09-09T07:25:07.271Z,16.50
2018-09-09T07:27:35.704Z,17.70
2018-09-09T07:30:04.331Z,16.10
2018-09-09T07:32:32.940Z,16.40
2018-09-09T07:35:01.418Z,17.80
2018-09-09T07:37:29.895Z,19.00
2018-09-09T07:39:58.339Z,19.00
2018-09-09T07:42:26.826Z,20.00
2018-09-09T07:44:55.242Z,20.60
2018-09-09T07:47:23.727Z,20.90
2018-09-09T07:49:58.611Z,21.20
2018-09-09T07:52:27.127Z,20.90
2018-09-09T07:54:55.639Z,20.20
2018-09-09T07:57:24.107Z,19.80
2018-09-09T07:59:52.717Z,19.50
2018-09-09T08:02:21.202Z,19.20
2018-09-09T08:04:49.617Z,19.00
2018-09-09T08:07:17.950Z,19.70
2018-09-09T08:09:46.406Z,21.00
2018-09-09T08:12:14.948Z,21.70
2018-09-09T08:14:43.319Z,21.80
2018-09-09T08:17:11.717Z,22.60
2018-09-09T08:19:40.114Z,22.40
2018-09-09T08:22:08.606Z,22.60
2018-09-09T08:24:37.127Z,22.70
2018-09-09T08:27:05.638Z,23.20
2018-09-09T08:29:34.083Z,23.70
2018-09-09T08:32:02.465Z,23.90
2018-09-09T08:34:30.847Z,23.60
2018-09-09T08:36:59.285Z,23.50
2018-09-09T08:39:27.678Z,23.60
2018-09-09T08:41:56.085Z,23.70
2018-09-09T08:44:24.518Z,22.30
2018-09-09T08:46:54.192Z,22.80
2018-09-09T08:49:22.632Z,23.40
2018-09-09T08:54:20.202Z,23.10
2018-09-09T08:56:48.647Z,23.50
2018-09-09T08:59:17.080Z,23.80
2018-09-09T09:01:45.541Z,23.90
2018-09-09T09:04:14.015Z,23.90
2018-09-09T09:06:42.463Z,23.90
2018-09-09T09:09:11.480Z,24.30
2018-09-09T09:11:39.955Z,24.60
2018-09-09T09:14:08.367Z,25.10
2018-09-09T09:16:36.744Z,25.10
2018-09-09T09:19:05.362Z,24.90
2018-09-09T09:21:33.744Z,24.40
2018-09-09T09:24:02.234Z,24.50
2018-09-09T09:26:30.665Z,24.90
2018-09-09T09:28:59.082Z,24.70
2018-09-09T09:31:28.267Z,25.00
2018-09-09T09:33:56.601Z,25.30
2018-09-09T09:36:25.038Z,25.50
2018-09-09T09:38:54.421Z,25.80
2018-09-09T09:41:22.947Z,26.10
2018-09-09T09:43:51.415Z,26.60
2018-09-09T09:46:20.050Z,26.30
2018-09-09T09:48:48.472Z,25.90
2018-09-09T09:51:16.678Z,26.40
2018-09-09T09:53:44.943Z,26.50
2018-09-09T09:56:13.627Z,26.20
2018-09-09T09:58:42.075Z,26.10
2018-09-09T10:01:10.302Z,26.40
2018-09-09T10:03:38.602Z,26.80
2018-09-09T10:06:06.795Z,26.60
2018-09-09T10:08:35.130Z,26.80
2018-09-09T10:11:03.380Z,25.30
2018-09-09T10:13:31.700Z,26.20
2018-09-09T10:15:59.947Z,26.00
2018-09-09T10:18:28.196Z,26.40
2018-09-09T10:20:56.414Z,28.10
2018-09-09T10:23:24.597Z,29.50
2018-09-09T10:25:52.808Z,30.10
2018-09-09T10:28:21.015Z,30.80
2018-09-09T10:30:49.278Z,29.40
2018-09-09T10:33:17.462Z,30.20
2018-09-09T10:35:45.689Z,30.50
2018-09-09T10:38:13.894Z,28.20
2018-09-09T10:40:42.150Z,28.50
2018-09-09T10:43:10.346Z,29.40
2018-09-09T10:45:38.560Z,28.80
2018-09-09T10:48:06.761Z,29.40
2018-09-09T10:50:34.991Z,28.90
2018-09-09T10:53:03.247Z,29.00
2018-09-09T10:55:31.647Z,27.90
2018-09-09T10:57:59.895Z,28.10
2018-09-09T11:00:28.114Z,29.50
2018-09-09T11:02:57.594Z,30.50
2018-09-09T11:05:25.779Z,30.20
2018-09-09T11:07:54.040Z,31.30
2018-09-09T11:10:22.244Z,31.80
2018-09-09T11:12:51.071Z,31.70
2018-09-09T11:15:19.205Z,31.80
2018-09-09T11:17:47.480Z,32.00
2018-09-09T11:20:15.731Z,32.50
2018-09-09T11:22:43.935Z,32.10
2018-09-09T11:25:12.138Z,31.20
2018-09-09T11:27:40.351Z,29.20
2018-09-09T11:30:08.565Z,31.50
2018-09-09T11:32:36.779Z,32.30
2018-09-09T11:35:04.999Z,32.50
2018-09-09T11:37:34.313Z,32.70
2018-09-09T11:40:02.580Z,33.10
2018-09-09T11:42:30.810Z,33.30
2018-09-09T11:44:59.004Z,32.90
2018-09-09T11:47:27.270Z,28.90
2018-09-09T11:49:55.477Z,30.40
2018-09-09T11:52:23.710Z,32.10
2018-09-09T11:54:51.899Z,33.20
2018-09-09T11:57:20.157Z,32.90
2018-09-09T11:59:48.367Z,32.50
2018-09-09T12:02:16.547Z,32.70
2018-09-09T12:04:44.727Z,32.80
2018-09-09T12:07:12.902Z,33.70
2018-09-09T12:09:41.078Z,30.80
2018-09-09T12:12:09.300Z,31.70
2018-09-09T12:14:37.494Z,31.50
2018-09-09T12:17:05.899Z,33.40
2018-09-09T12:19:34.111Z,33.90
2018-09-09T12:22:02.295Z,33.80
2018-09-09T12:24:31.410Z,33.80
2018-09-09T12:26:59.630Z,33.70
2018-09-09T12:29:27.852Z,33.30
2018-09-09T12:31:56.080Z,33.80
2018-09-09T12:34:24.262Z,33.20
2018-09-09T12:36:52.519Z,32.90
2018-09-09T12:39:21.552Z,32.70
2018-09-09T12:41:49.790Z,33.70
2018-09-09T12:44:23.387Z,34.10
2018-09-09T12:46:56.985Z,35.20
2018-09-09T12:49:25.170Z,34.80
2018-09-09T12:51:53.411Z,33.60
2018-09-09T12:54:21.580Z,31.50
2018-09-09T12:56:49.746Z,31.40
2018-09-09T12:59:17.910Z,30.10
2018-09-09T13:01:46.133Z,30.20
2018-09-09T13:04:14.314Z,29.80
2018-09-09T13:06:42.487Z,28.20
2018-09-09T13:09:10.812Z,27.90
2018-09-09T13:11:39.014Z,28.20
2018-09-09T13:14:07.351Z,28.20
2018-09-09T13:16:35.513Z,28.10
2018-09-09T13:19:03.720Z,28.00
2018-09-09T13:21:31.927Z,27.80
2018-09-09T13:24:00.136Z,26.50
2018-09-09T13:26:28.488Z,26.60
2018-09-09T13:28:56.712Z,27.70
2018-09-09T13:31:24.956Z,27.90
2018-09-09T13:33:53.156Z,27.70
2018-09-09T13:36:21.350Z,27.80
2018-09-09T13:38:49.562Z,28.50
2018-09-09T13:41:17.732Z,28.90
2018-09-09T13:43:45.906Z,29.70
2018-09-09T13:46:15.031Z,30.20
2018-09-09T13:48:43.218Z,30.10
2018-09-09T13:51:11.429Z,28.90
2018-09-09T13:53:39.957Z,28.20
2018-09-09T13:56:08.159Z,29.10
2018-09-09T13:58:36.347Z,29.20
2018-09-09T14:01:04.554Z,28.40
2018-09-09T14:03:32.850Z,29.00
2018-09-09T14:06:01.028Z,27.90
2018-09-09T14:08:29.235Z,28.00
2018-09-09T14:10:58.048Z,28.20
2018-09-09T14:13:26.414Z,27.00
2018-09-09T14:15:54.613Z,27.00
2018-09-09T14:18:23.054Z,27.20
2018-09-09T14:20:51.286Z,27.60
2018-09-09T14:23:19.466Z,27.30
2018-09-09T14:25:47.662Z,26.30
2018-09-09T14:28:15.902Z,26.80
2018-09-09T14:30:44.080Z,27.20
2018-09-09T14:33:12.367Z,27.30
2018-09-09T14:35:40.823Z,27.30
2018-09-09T14:38:09.031Z,27.00
2018-09-09T14:40:37.246Z,26.80
2018-09-09T14:43:05.480Z,27.10
2018-09-09T14:45:33.646Z,27.80
2018-09-09T14:48:01.831Z,28.40
2018-09-09T14:50:30.098Z,28.00
2018-09-09T14:52:58.317Z,28.10
2018-09-09T14:55:26.440Z,28.20
2018-09-09T14:57:54.618Z,28.40
2018-09-09T15:00:22.816Z,28.30
2018-09-09T15:02:50.966Z,28.00
2018-09-09T15:05:19.138Z,28.30
2018-09-09T15:07:47.369Z,28.20
2018-09-09T15:10:15.578Z,27.90
2018-09-09T15:12:43.722Z,27.70
2018-09-09T15:15:11.921Z,27.90
2018-09-09T15:17:40.147Z,28.20
2018-09-09T15:20:08.361Z,28.00
2018-09-09T15:22:36.557Z,27.90
2018-09-09T15:25:04.707Z,27.60
2018-09-09T15:27:32.885Z,26.70
2018-09-09T15:30:01.126Z,26.30
2018-09-09T15:32:29.295Z,25.60
2018-09-09T15:34:57.465Z,25.50
2018-09-09T15:37:25.626Z,25.60
2018-09-09T15:39:53.886Z,25.60
2018-09-09T15:42:22.006Z,26.00
2018-09-09T15:44:50.214Z,25.90
2018-09-09T15:47:18.359Z,25.90
2018-09-09T15:49:46.514Z,26.10
2018-09-09T15:52:14.675Z,26.00
2018-09-09T15:54:42.842Z,26.10
2018-09-09T15:57:11.010Z,26.00
2018-09-09T15:59:39.173Z,26.00
2018-09-09T16:02:07.318Z,25.90
2018-09-09T16:04:35.547Z,25.90
2018-09-09T16:07:03.707Z,25.80
2018-09-09T16:09:31.854Z,25.70
2018-09-09T16:12:00.003Z,25.70
2018-09-09T16:14:28.178Z,25.50
2018-09-09T16:16:56.366Z,25.50
2018-09-09T16:19:24.554Z,25.20
2018-09-09T16:21:52.740Z,25.10
2018-09-09T16:24:20.906Z,25.10
2018-09-09T16:26:49.114Z,25.10
2018-09-09T16:29:17.297Z,25.10
2018-09-09T16:31:45.446Z,25.10
2018-09-09T16:34:13.656Z,25.10
2018-09-09T16:36:41.846Z,25.00
2018-09-09T16:39:10.034Z,25.00
2018-09-09T16:41:38.391Z,25.00
2018-09-09T16:44:06.845Z,24.80
2018-09-09T16:46:35.073Z,24.50
2018-09-09T16:49:03.241Z,24.50
2018-09-09T16:51:31.418Z,24.50
2018-09-09T16:53:59.618Z,24.40
2018-09-09T16:56:27.839Z,24.10
2018-09-09T16:58:56.041Z,24.10
2018-09-09T17:01:24.426Z,24.20
2018-09-09T17:03:52.617Z,24.40
2018-09-09T17:06:20.847Z,24.60
2018-09-09T17:08:49.127Z,24.60
2018-09-09T17:11:17.327Z,24.60
2018-09-09T17:13:45.547Z,24.60
2018-09-09T17:16:13.705Z,24.60
2018-09-09T17:18:41.879Z,24.60
2018-09-09T17:21:10.036Z,24.60
2018-09-09T17:23:38.269Z,24.60
2018-09-09T17:26:06.491Z,24.50
2018-09-09T17:28:34.667Z,24.50
2018-09-09T17:31:02.890Z,24.40
2018-09-09T17:33:31.064Z,24.30
2018-09-09T17:35:59.295Z,24.30
2018-09-09T17:38:27.484Z,24.30
2018-09-09T17:40:55.690Z,24.20
2018-09-09T17:43:24.826Z,24.10
2018-09-09T17:45:53.017Z,24.10
2018-09-09T17:48:21.270Z,24.00
2018-09-09T17:50:49.458Z,23.90
2018-09-09T17:53:17.631Z,23.90
2018-09-09T17:55:45.832Z,23.70
2018-09-09T17:58:14.050Z,23.40
2018-09-09T18:00:42.303Z,22.80
2018-09-09T18:03:10.506Z,22.60
2018-09-09T18:05:38.830Z,22.50
2018-09-09T18:08:07.033Z,22.10
2018-09-09T18:10:41.570Z,21.20
2018-09-09T18:13:09.749Z,20.80
2018-09-09T18:15:37.945Z,20.50
2018-09-09T18:18:06.124Z,20.50
2018-09-09T18:20:34.340Z,20.80
2018-09-09T18:23:02.527Z,20.90
2018-09-09T18:25:30.734Z,20.80
2018-09-09T18:28:05.429Z,20.70
2018-09-09T18:30:33.821Z,20.70
2018-09-09T18:33:02.001Z,20.60
2018-09-09T18:35:30.223Z,20.00
2018-09-09T18:37:58.427Z,19.70
2018-09-09T18:40:26.626Z,20.10
2018-09-09T18:42:54.863Z,19.80
2018-09-09T18:45:23.062Z,19.20
2018-09-09T18:47:51.333Z,19.10
2018-09-09T18:50:19.522Z,18.90
2018-09-09T18:52:47.698Z,18.90
2018-09-09T18:55:15.907Z,19.40
2018-09-09T18:57:44.073Z,19.60
2018-09-09T19:00:12.282Z,19.80
2018-09-09T19:02:40.485Z,19.20
2018-09-09T19:05:08.694Z,19.00
2018-09-09T19:07:36.893Z,18.70
2018-09-09T19:10:05.066Z,18.30
2018-09-09T19:12:33.283Z,18.10
2018-09-09T19:15:01.526Z,17.80
2018-09-09T19:17:29.729Z,17.60
2018-09-09T19:19:57.942Z,17.50
2018-09-09T19:22:26.154Z,17.50
2018-09-09T19:24:54.374Z,17.30
2018-09-09T19:27:22.552Z,17.10
2018-09-09T19:29:50.791Z,16.90
2018-09-09T19:32:19.006Z,16.60
2018-09-09T19:34:47.193Z,16.80
2018-09-09T19:37:15.925Z,16.50
2018-09-09T19:39:44.213Z,16.40
2018-09-09T19:42:12.369Z,17.00
2018-09-09T19:44:40.550Z,16.80
2018-09-09T19:47:08.718Z,16.50
2018-09-09T19:49:36.913Z,16.50
2018-09-09T19:52:05.093Z,16.30
2018-09-09T19:54:33.245Z,16.10
2018-09-09T19:57:01.413Z,15.80
2018-09-09T19:59:29.590Z,15.90
2018-09-09T20:01:57.816Z,16.00
2018-09-09T20:04:26.107Z,16.00
2018-09-09T20:06:54.367Z,16.50
2018-09-09T20:09:22.599Z,15.90
2018-09-09T20:11:50.784Z,15.70
2018-09-09T20:14:19.090Z,16.00
2018-09-09T20:16:47.338Z,16.60
2018-09-09T20:19:15.516Z,17.00
2018-09-09T20:21:43.681Z,16.20
2018-09-09T20:24:11.870Z,16.70
2018-09-09T20:26:40.118Z,16.20
2018-09-09T20:29:08.313Z,15.40
2018-09-09T20:31:36.502Z,15.20
2018-09-09T20:34:04.714Z,15.00
2018-09-09T20:36:32.894Z,14.80
2018-09-09T20:39:01.067Z,15.30
2018-09-09T20:41:29.274Z,15.60
2018-09-09T20:43:57.709Z,15.50
2018-09-09T20:46:25.876Z,15.50
2018-09-09T20:48:54.061Z,15.10
2018-09-09T20:51:22.270Z,15.60
2018-09-09T20:53:50.434Z,15.40
2018-09-09T20:56:18.593Z,15.00
2018-09-09T20:58:46.812Z,15.10
2018-09-09T21:01:15.013Z,15.60
2018-09-09T21:03:43.214Z,15.50
2018-09-09T21:06:11.416Z,14.70
2018-09-09T21:08:39.627Z,14.50
2018-09-09T21:11:08.014Z,14.30
2018-09-09T21:13:36.240Z,14.30
2018-09-09T21:16:04.409Z,14.40
2018-09-09T21:18:33.046Z,15.20
2018-09-09T21:21:01.257Z,15.10
2018-09-09T21:23:29.450Z,15.30
2018-09-09T21:25:57.643Z,15.60
2018-09-09T21:28:25.789Z,14.70
2018-09-09T21:30:53.992Z,14.10
2018-09-09T21:33:22.269Z,13.80
2018-09-09T21:35:50.663Z,14.40
2018-09-09T21:38:18.893Z,13.90
2018-09-09T21:40:47.093Z,13.80
2018-09-09T21:43:15.336Z,13.80
2018-09-09T21:45:43.602Z,14.60
2018-09-09T21:48:11.827Z,15.10
2018-09-09T21:50:40.066Z,14.50
2018-09-09T21:53:08.263Z,13.80
2018-09-09T21:55:36.457Z,13.70
2018-09-09T21:58:04.736Z,14.40
2018-09-09T22:00:34.598Z,14.40
2018-09-09T22:03:02.809Z,13.80
2018-09-09T22:05:31.046Z,13.80
2018-09-09T22:07:59.465Z,13.40
2018-09-09T22:10:27.718Z,13.30
2018-09-09T22:12:55.963Z,14.20
2018-09-09T22:15:24.169Z,14.40
2018-09-09T22:17:52.348Z,14.70
2018-09-09T22:20:20.655Z,14.00
2018-09-09T22:22:48.949Z,14.20
2018-09-09T22:25:17.366Z,14.50
2018-09-09T22:27:45.802Z,14.70
2018-09-09T22:30:14.292Z,14.20
2018-09-09T22:32:42.732Z,13.10
2018-09-09T22:35:11.237Z,13.00
2018-09-09T22:37:39.770Z,12.70
2018-09-09T22:40:08.278Z,12.60
2018-09-09T22:42:36.699Z,12.70
2018-09-09T22:45:05.235Z,12.90
2018-09-09T22:47:33.667Z,13.20
2018-09-09T22:50:02.084Z,13.40
2018-09-09T22:52:30.518Z,12.80
2018-09-09T22:54:58.931Z,12.60
2018-09-09T22:57:27.554Z,13.40
2018-09-09T22:59:56.033Z,13.30
2018-09-09T23:02:24.527Z,12.90
2018-09-09T23:04:52.975Z,12.50
2018-09-09T23:07:21.450Z,12.40
2018-09-09T23:09:49.879Z,12.70
2018-09-09T23:12:18.399Z,13.30
2018-09-09T23:14:46.803Z,13.90
2018-09-09T23:17:15.342Z,14.00
2018-09-09T23:19:43.838Z,14.20
2018-09-09T23:22:12.373Z,14.30
2018-09-09T23:24:40.858Z,14.20
2018-09-09T23:27:09.270Z,14.30
2018-09-09T23:29:37.736Z,14.50
2018-09-09T23:32:06.366Z,14.00
2018-09-09T23:34:34.783Z,13.80
2018-09-09T23:37:03.209Z,13.10
2018-09-09T23:39:31.740Z,12.30
2018-09-09T23:42:00.205Z,12.40
2018-09-09T23:44:28.756Z,11.90
2018-09-09T23:46:57.233Z,11.80
2018-09-09T23:49:25.742Z,12.00
2018-09-09T23:51:54.373Z,11.90
2018-09-09T23:54:22.869Z,12.10
2018-09-09T23:56:51.285Z,13.10
2018-09-09T23:59:19.736Z,13.60
